sensor_id;sensor_type;location;lat;lon;timestamp;pressure;altitude;pressure_sealevel;temperature
54746;BMP180;40640;48.130;11.356;2023-04-06T00:00:44;95777.00;;;2.80
54746;BMP180;40640;48.130;11.356;2023-04-06T00:04:47;95769.00;;;2.70
54746;BMP180;40640;48.130;11.356;2023-04-06T00:08:51;95765.00;;;2.60
54746;BMP180;40640;48.130;11.356;2023-04-06T00:12:54;95766.00;;;2.70
54746;BMP180;40640;48.130;11.356;2023-04-06T00:16:58;95757.00;;;2.60
54746;BMP180;40640;48.130;11.356;2023-04-06T00:21:01;95753.00;;;2.40
54746;BMP180;40640;48.130;11.356;2023-04-06T00:25:06;95762.00;;;2.60
54746;BMP180;40640;48.130;11.356;2023-04-06T00:29:09;95756.00;;;2.30
54746;BMP180;40640;48.130;11.356;2023-04-06T00:33:12;95753.00;;;2.40
54746;BMP180;40640;48.130;11.356;2023-04-06T00:37:15;95759.00;;;2.40
54746;BMP180;40640;48.130;11.356;2023-04-06T00:41:19;95758.00;;;2.30
54746;BMP180;40640;48.130;11.356;2023-04-06T00:45:23;95754.00;;;2.10
54746;BMP180;40640;48.130;11.356;2023-04-06T00:49:26;95749.00;;;2.10
54746;BMP180;40640;48.130;11.356;2023-04-06T00:53:29;95751.00;;;2.10
54746;BMP180;40640;48.130;11.356;2023-04-06T00:57:35;95755.00;;;2.40
54746;BMP180;40640;48.130;11.356;2023-04-06T01:01:38;95749.00;;;2.10
54746;BMP180;40640;48.130;11.356;2023-04-06T01:05:56;95741.00;;;2.10
54746;BMP180;40640;48.130;11.356;2023-04-06T01:10:08;95757.00;;;1.90
54746;BMP180;40640;48.130;11.356;2023-04-06T01:14:14;95745.00;;;2.10
54746;BMP180;40640;48.130;11.356;2023-04-06T01:18:26;95744.00;;;1.90
54746;BMP180;40640;48.130;11.356;2023-04-06T01:22:46;95745.00;;;1.70
54746;BMP180;40640;48.130;11.356;2023-04-06T01:26:50;95737.00;;;1.90
54746;BMP180;40640;48.130;11.356;2023-04-06T01:30:53;95734.00;;;1.90
54746;BMP180;40640;48.130;11.356;2023-04-06T01:35:15;95729.00;;;1.70
54746;BMP180;40640;48.130;11.356;2023-04-06T01:39:30;95729.00;;;1.70
54746;BMP180;40640;48.130;11.356;2023-04-06T01:43:36;95719.00;;;1.70
54746;BMP180;40640;48.130;11.356;2023-04-06T01:47:42;95716.00;;;1.70
54746;BMP180;40640;48.130;11.356;2023-04-06T01:51:46;95714.00;;;1.60
54746;BMP180;40640;48.130;11.356;2023-04-06T01:55:51;95715.00;;;1.60
54746;BMP180;40640;48.130;11.356;2023-04-06T01:59:59;95716.00;;;1.70
54746;BMP180;40640;48.130;11.356;2023-04-06T02:04:14;95711.00;;;1.40
54746;BMP180;40640;48.130;11.356;2023-04-06T02:08:19;95721.00;;;1.30
54746;BMP180;40640;48.130;11.356;2023-04-06T02:12:24;95716.00;;;1.20
54746;BMP180;40640;48.130;11.356;2023-04-06T02:16:28;95710.00;;;1.30
54746;BMP180;40640;48.130;11.356;2023-04-06T02:20:32;95708.00;;;1.10
54746;BMP180;40640;48.130;11.356;2023-04-06T02:24:35;95702.00;;;1.20
54746;BMP180;40640;48.130;11.356;2023-04-06T02:28:39;95705.00;;;1.10
54746;BMP180;40640;48.130;11.356;2023-04-06T02:32:42;95708.00;;;1.10
54746;BMP180;40640;48.130;11.356;2023-04-06T02:36:46;95702.00;;;1.10
54746;BMP180;40640;48.130;11.356;2023-04-06T02:40:49;95699.00;;;1.00
54746;BMP180;40640;48.130;11.356;2023-04-06T02:44:57;95691.00;;;1.00
54746;BMP180;40640;48.130;11.356;2023-04-06T02:49:05;95692.00;;;1.00
54746;BMP180;40640;48.130;11.356;2023-04-06T02:53:09;95687.00;;;1.20
54746;BMP180;40640;48.130;11.356;2023-04-06T02:57:14;95689.00;;;1.10
54746;BMP180;40640;48.130;11.356;2023-04-06T03:01:21;95685.00;;;1.10
54746;BMP180;40640;48.130;11.356;2023-04-06T03:05:30;95686.00;;;1.10
54746;BMP180;40640;48.130;11.356;2023-04-06T03:09:34;95693.00;;;1.10
54746;BMP180;40640;48.130;11.356;2023-04-06T03:13:38;95696.00;;;1.10
54746;BMP180;40640;48.130;11.356;2023-04-06T03:17:43;95694.00;;;1.30
54746;BMP180;40640;48.130;11.356;2023-04-06T03:22:00;95700.00;;;1.20
54746;BMP180;40640;48.130;11.356;2023-04-06T03:26:03;95695.00;;;1.10
54746;BMP180;40640;48.130;11.356;2023-04-06T03:30:07;95702.00;;;1.10
54746;BMP180;40640;48.130;11.356;2023-04-06T03:34:13;95693.00;;;0.70
54746;BMP180;40640;48.130;11.356;2023-04-06T03:38:16;95691.00;;;0.40
54746;BMP180;40640;48.130;11.356;2023-04-06T03:42:19;95686.00;;;0.40
54746;BMP180;40640;48.130;11.356;2023-04-06T03:46:30;95692.00;;;0.40
54746;BMP180;40640;48.130;11.356;2023-04-06T03:50:35;95699.00;;;0.50
54746;BMP180;40640;48.130;11.356;2023-04-06T03:54:39;95698.00;;;0.40
54746;BMP180;40640;48.130;11.356;2023-04-06T03:58:45;95706.00;;;0.30
54746;BMP180;40640;48.130;11.356;2023-04-06T04:02:51;95698.00;;;0.30
54746;BMP180;40640;48.130;11.356;2023-04-06T04:06:56;95704.00;;;0.30
54746;BMP180;40640;48.130;11.356;2023-04-06T04:10:59;95710.00;;;0.50
54746;BMP180;40640;48.130;11.356;2023-04-06T04:15:03;95710.00;;;0.50
54746;BMP180;40640;48.130;11.356;2023-04-06T04:19:06;95708.00;;;0.50
54746;BMP180;40640;48.130;11.356;2023-04-06T04:23:11;95710.00;;;0.10
54746;BMP180;40640;48.130;11.356;2023-04-06T04:27:14;95710.00;;;0.20
54746;BMP180;40640;48.130;11.356;2023-04-06T04:31:17;95714.00;;;0.20
54746;BMP180;40640;48.130;11.356;2023-04-06T04:35:28;95710.00;;;0.10
54746;BMP180;40640;48.130;11.356;2023-04-06T04:39:32;95710.00;;;0.20
54746;BMP180;40640;48.130;11.356;2023-04-06T04:43:39;95706.00;;;0.10
54746;BMP180;40640;48.130;11.356;2023-04-06T04:47:44;95720.00;;;0.20
54746;BMP180;40640;48.130;11.356;2023-04-06T04:51:49;95709.00;;;0.30
54746;BMP180;40640;48.130;11.356;2023-04-06T04:56:03;95714.00;;;0.40
54746;BMP180;40640;48.130;11.356;2023-04-06T05:00:07;95705.00;;;0.20
54746;BMP180;40640;48.130;11.356;2023-04-06T05:04:13;95711.00;;;0.20
54746;BMP180;40640;48.130;11.356;2023-04-06T05:08:17;95718.00;;;0.20
54746;BMP180;40640;48.130;11.356;2023-04-06T05:12:23;95709.00;;;0.20
54746;BMP180;40640;48.130;11.356;2023-04-06T05:16:37;95715.00;;;0.10
54746;BMP180;40640;48.130;11.356;2023-04-06T05:20:40;95703.00;;;0.20
54746;BMP180;40640;48.130;11.356;2023-04-06T05:24:42;95708.00;;;0.20
54746;BMP180;40640;48.130;11.356;2023-04-06T05:28:47;95716.00;;;0.20
54746;BMP180;40640;48.130;11.356;2023-04-06T05:32:51;95725.00;;;0.30
54746;BMP180;40640;48.130;11.356;2023-04-06T05:36:57;95718.00;;;0.40
54746;BMP180;40640;48.130;11.356;2023-04-06T05:41:00;95721.00;;;0.50
54746;BMP180;40640;48.130;11.356;2023-04-06T05:45:09;95721.00;;;0.50
54746;BMP180;40640;48.130;11.356;2023-04-06T05:49:21;95726.00;;;0.60
54746;BMP180;40640;48.130;11.356;2023-04-06T05:53:24;95734.00;;;0.70
54746;BMP180;40640;48.130;11.356;2023-04-06T05:57:31;95733.00;;;0.90
54746;BMP180;40640;48.130;11.356;2023-04-06T06:01:38;95749.00;;;2.00
54746;BMP180;40640;48.130;11.356;2023-04-06T06:05:41;95766.00;;;4.00
54746;BMP180;40640;48.130;11.356;2023-04-06T06:09:51;95761.00;;;5.10
54746;BMP180;40640;48.130;11.356;2023-04-06T06:13:59;95769.00;;;6.00
54746;BMP180;40640;48.130;11.356;2023-04-06T06:18:08;95769.00;;;6.30
54746;BMP180;40640;48.130;11.356;2023-04-06T06:22:12;95780.00;;;6.70
54746;BMP180;40640;48.130;11.356;2023-04-06T06:26:19;95775.00;;;7.30
54746;BMP180;40640;48.130;11.356;2023-04-06T06:30:24;95780.00;;;7.80
54746;BMP180;40640;48.130;11.356;2023-04-06T06:34:29;95777.00;;;7.60
54746;BMP180;40640;48.130;11.356;2023-04-06T06:38:34;95786.00;;;7.80
54746;BMP180;40640;48.130;11.356;2023-04-06T06:42:38;95789.00;;;7.20
54746;BMP180;40640;48.130;11.356;2023-04-06T06:46:51;95788.00;;;7.10
54746;BMP180;40640;48.130;11.356;2023-04-06T06:50:55;95788.00;;;7.10
54746;BMP180;40640;48.130;11.356;2023-04-06T06:54:58;95799.00;;;8.30
54746;BMP180;40640;48.130;11.356;2023-04-06T06:59:01;95791.00;;;7.60
54746;BMP180;40640;48.130;11.356;2023-04-06T07:03:04;95807.00;;;7.50
54746;BMP180;40640;48.130;11.356;2023-04-06T07:07:09;95821.00;;;11.10
54746;BMP180;40640;48.130;11.356;2023-04-06T07:11:12;95818.00;;;11.10
54746;BMP180;40640;48.130;11.356;2023-04-06T07:15:16;95826.00;;;11.60
54746;BMP180;40640;48.130;11.356;2023-04-06T07:19:19;95827.00;;;14.40
54746;BMP180;40640;48.130;11.356;2023-04-06T07:23:23;95831.00;;;16.30
54746;BMP180;40640;48.130;11.356;2023-04-06T07:27:26;95835.00;;;15.80
54746;BMP180;40640;48.130;11.356;2023-04-06T07:31:29;95841.00;;;15.90
54746;BMP180;40640;48.130;11.356;2023-04-06T07:35:34;95853.00;;;17.90
54746;BMP180;40640;48.130;11.356;2023-04-06T07:39:40;95848.00;;;17.70
54746;BMP180;40640;48.130;11.356;2023-04-06T07:43:44;95856.00;;;16.70
54746;BMP180;40640;48.130;11.356;2023-04-06T07:47:47;95839.00;;;15.50
54746;BMP180;40640;48.130;11.356;2023-04-06T07:51:51;95845.00;;;17.70
54746;BMP180;40640;48.130;11.356;2023-04-06T07:55:56;95856.00;;;20.10
54746;BMP180;40640;48.130;11.356;2023-04-06T07:59:59;95849.00;;;21.60
54746;BMP180;40640;48.130;11.356;2023-04-06T08:04:12;95842.00;;;20.80
54746;BMP180;40640;48.130;11.356;2023-04-06T08:08:15;95855.00;;;20.40
54746;BMP180;40640;48.130;11.356;2023-04-06T08:12:19;95846.00;;;20.50
54746;BMP180;40640;48.130;11.356;2023-04-06T08:16:23;95841.00;;;22.10
54746;BMP180;40640;48.130;11.356;2023-04-06T08:20:26;95844.00;;;23.70
54746;BMP180;40640;48.130;11.356;2023-04-06T08:24:29;95850.00;;;25.50
54746;BMP180;40640;48.130;11.356;2023-04-06T08:28:35;95854.00;;;26.40
54746;BMP180;40640;48.130;11.356;2023-04-06T08:32:38;95859.00;;;26.40
54746;BMP180;40640;48.130;11.356;2023-04-06T08:36:42;95867.00;;;26.30
54746;BMP180;40640;48.130;11.356;2023-04-06T08:40:47;95857.00;;;28.00
54746;BMP180;40640;48.130;11.356;2023-04-06T08:44:54;95867.00;;;28.80
54746;BMP180;40640;48.130;11.356;2023-04-06T08:48:58;95867.00;;;29.90
54746;BMP180;40640;48.130;11.356;2023-04-06T08:53:01;95870.00;;;28.90
54746;BMP180;40640;48.130;11.356;2023-04-06T08:57:04;95876.00;;;29.20
54746;BMP180;40640;48.130;11.356;2023-04-06T09:01:11;95873.00;;;31.00
54746;BMP180;40640;48.130;11.356;2023-04-06T09:05:15;95869.00;;;31.70
54746;BMP180;40640;48.130;11.356;2023-04-06T09:09:18;95871.00;;;32.70
54746;BMP180;40640;48.130;11.356;2023-04-06T09:13:25;95869.00;;;33.00
54746;BMP180;40640;48.130;11.356;2023-04-06T09:17:29;95872.00;;;32.00
54746;BMP180;40640;48.130;11.356;2023-04-06T09:21:34;95875.00;;;29.40
54746;BMP180;40640;48.130;11.356;2023-04-06T09:25:37;95870.00;;;29.90
54746;BMP180;40640;48.130;11.356;2023-04-06T09:29:40;95865.00;;;32.00
54746;BMP180;40640;48.130;11.356;2023-04-06T09:33:45;95872.00;;;32.80
54746;BMP180;40640;48.130;11.356;2023-04-06T09:37:49;95867.00;;;32.90
54746;BMP180;40640;48.130;11.356;2023-04-06T09:41:53;95863.00;;;32.10
54746;BMP180;40640;48.130;11.356;2023-04-06T09:46:00;95871.00;;;31.30
54746;BMP180;40640;48.130;11.356;2023-04-06T09:50:07;95870.00;;;31.40
54746;BMP180;40640;48.130;11.356;2023-04-06T09:54:15;95862.00;;;29.00
54746;BMP180;40640;48.130;11.356;2023-04-06T09:58:19;95856.00;;;29.90
54746;BMP180;40640;48.130;11.356;2023-04-06T10:02:34;95864.00;;;28.30
54746;BMP180;40640;48.130;11.356;2023-04-06T10:06:42;95864.00;;;27.40
54746;BMP180;40640;48.130;11.356;2023-04-06T10:10:46;95860.00;;;26.70
54746;BMP180;40640;48.130;11.356;2023-04-06T10:14:49;95855.00;;;25.30
54746;BMP180;40640;48.130;11.356;2023-04-06T10:18:57;95856.00;;;23.50
54746;BMP180;40640;48.130;11.356;2023-04-06T10:23:06;95844.00;;;22.60
54746;BMP180;40640;48.130;11.356;2023-04-06T10:27:11;95840.00;;;21.80
54746;BMP180;40640;48.130;11.356;2023-04-06T10:31:13;95840.00;;;21.40
54746;BMP180;40640;48.130;11.356;2023-04-06T10:35:17;95835.00;;;21.50
54746;BMP180;40640;48.130;11.356;2023-04-06T10:39:25;95834.00;;;20.80
54746;BMP180;40640;48.130;11.356;2023-04-06T10:43:33;95832.00;;;20.40
54746;BMP180;40640;48.130;11.356;2023-04-06T10:47:39;95828.00;;;20.00
54746;BMP180;40640;48.130;11.356;2023-04-06T10:51:42;95826.00;;;19.60
54746;BMP180;40640;48.130;11.356;2023-04-06T10:55:49;95820.00;;;19.10
54746;BMP180;40640;48.130;11.356;2023-04-06T10:59:53;95819.00;;;20.00
54746;BMP180;40640;48.130;11.356;2023-04-06T11:03:57;95823.00;;;20.00
54746;BMP180;40640;48.130;11.356;2023-04-06T11:08:01;95820.00;;;19.30
54746;BMP180;40640;48.130;11.356;2023-04-06T11:12:06;95816.00;;;18.90
54746;BMP180;40640;48.130;11.356;2023-04-06T11:16:15;95823.00;;;18.80
54746;BMP180;40640;48.130;11.356;2023-04-06T11:20:18;95816.00;;;19.10
54746;BMP180;40640;48.130;11.356;2023-04-06T11:24:22;95818.00;;;20.10
54746;BMP180;40640;48.130;11.356;2023-04-06T11:28:27;95813.00;;;21.80
54746;BMP180;40640;48.130;11.356;2023-04-06T11:32:39;95803.00;;;21.00
54746;BMP180;40640;48.130;11.356;2023-04-06T11:36:43;95803.00;;;20.50
54746;BMP180;40640;48.130;11.356;2023-04-06T11:40:47;95802.00;;;24.40
54746;BMP180;40640;48.130;11.356;2023-04-06T11:44:57;95792.00;;;27.20
54746;BMP180;40640;48.130;11.356;2023-04-06T11:49:00;95784.00;;;28.30
54746;BMP180;40640;48.130;11.356;2023-04-06T11:53:03;95786.00;;;30.00
54746;BMP180;40640;48.130;11.356;2023-04-06T11:57:07;95785.00;;;30.70
54746;BMP180;40640;48.130;11.356;2023-04-06T12:01:12;95780.00;;;32.50
54746;BMP180;40640;48.130;11.356;2023-04-06T12:05:15;95779.00;;;31.00
54746;BMP180;40640;48.130;11.356;2023-04-06T12:09:18;95780.00;;;30.30
54746;BMP180;40640;48.130;11.356;2023-04-06T12:13:20;95775.00;;;32.60
54746;BMP180;40640;48.130;11.356;2023-04-06T12:17:25;95788.00;;;28.40
54746;BMP180;40640;48.130;11.356;2023-04-06T12:21:28;95785.00;;;25.20
54746;BMP180;40640;48.130;11.356;2023-04-06T12:25:32;95785.00;;;23.20
54746;BMP180;40640;48.130;11.356;2023-04-06T12:29:35;95777.00;;;22.20
54746;BMP180;40640;48.130;11.356;2023-04-06T12:33:39;95770.00;;;24.90
54746;BMP180;40640;48.130;11.356;2023-04-06T12:37:42;95764.00;;;28.80
54746;BMP180;40640;48.130;11.356;2023-04-06T12:41:46;95767.00;;;30.50
54746;BMP180;40640;48.130;11.356;2023-04-06T12:45:49;95755.00;;;28.80
54746;BMP180;40640;48.130;11.356;2023-04-06T12:49:53;95760.00;;;26.80
54746;BMP180;40640;48.130;11.356;2023-04-06T12:53:57;95755.00;;;24.80
54746;BMP180;40640;48.130;11.356;2023-04-06T12:58:00;95762.00;;;22.70
54746;BMP180;40640;48.130;11.356;2023-04-06T13:02:03;95756.00;;;23.20
54746;BMP180;40640;48.130;11.356;2023-04-06T13:06:09;95756.00;;;25.00
54746;BMP180;40640;48.130;11.356;2023-04-06T13:10:12;95754.00;;;25.50
54746;BMP180;40640;48.130;11.356;2023-04-06T13:14:16;95751.00;;;23.40
54746;BMP180;40640;48.130;11.356;2023-04-06T13:18:19;95753.00;;;22.20
54746;BMP180;40640;48.130;11.356;2023-04-06T13:22:23;95751.00;;;21.20
54746;BMP180;40640;48.130;11.356;2023-04-06T13:26:26;95737.00;;;20.10
54746;BMP180;40640;48.130;11.356;2023-04-06T13:30:30;95742.00;;;19.30
54746;BMP180;40640;48.130;11.356;2023-04-06T13:34:33;95734.00;;;18.70
54746;BMP180;40640;48.130;11.356;2023-04-06T13:38:37;95730.00;;;18.40
54746;BMP180;40640;48.130;11.356;2023-04-06T13:42:41;95737.00;;;18.20
54746;BMP180;40640;48.130;11.356;2023-04-06T13:46:46;95731.00;;;18.90
54746;BMP180;40640;48.130;11.356;2023-04-06T13:50:49;95716.00;;;21.20
54746;BMP180;40640;48.130;11.356;2023-04-06T13:54:53;95714.00;;;21.00
54746;BMP180;40640;48.130;11.356;2023-04-06T13:58:56;95719.00;;;19.80
54746;BMP180;40640;48.130;11.356;2023-04-06T14:03:00;95715.00;;;19.30
54746;BMP180;40640;48.130;11.356;2023-04-06T14:07:03;95711.00;;;19.90
54746;BMP180;40640;48.130;11.356;2023-04-06T14:11:12;95709.00;;;19.70
54746;BMP180;40640;48.130;11.356;2023-04-06T14:15:15;95709.00;;;19.30
54746;BMP180;40640;48.130;11.356;2023-04-06T14:19:18;95703.00;;;18.50
54746;BMP180;40640;48.130;11.356;2023-04-06T14:23:22;95701.00;;;18.00
54746;BMP180;40640;48.130;11.356;2023-04-06T14:27:28;95689.00;;;18.00
54746;BMP180;40640;48.130;11.356;2023-04-06T14:31:32;95693.00;;;17.60
54746;BMP180;40640;48.130;11.356;2023-04-06T14:35:38;95702.00;;;17.40
54746;BMP180;40640;48.130;11.356;2023-04-06T14:39:41;95689.00;;;17.50
54746;BMP180;40640;48.130;11.356;2023-04-06T14:43:45;95684.00;;;17.70
54746;BMP180;40640;48.130;11.356;2023-04-06T14:47:48;95686.00;;;17.90
54746;BMP180;40640;48.130;11.356;2023-04-06T14:51:52;95677.00;;;17.80
54746;BMP180;40640;48.130;11.356;2023-04-06T14:55:55;95677.00;;;17.70
54746;BMP180;40640;48.130;11.356;2023-04-06T15:00:00;95680.00;;;17.80
54746;BMP180;40640;48.130;11.356;2023-04-06T15:04:03;95684.00;;;17.50
54746;BMP180;40640;48.130;11.356;2023-04-06T15:08:06;95677.00;;;17.40
54746;BMP180;40640;48.130;11.356;2023-04-06T15:12:10;95678.00;;;17.00
54746;BMP180;40640;48.130;11.356;2023-04-06T15:16:14;95686.00;;;16.50
54746;BMP180;40640;48.130;11.356;2023-04-06T15:20:18;95673.00;;;16.20
54746;BMP180;40640;48.130;11.356;2023-04-06T15:24:20;95673.00;;;16.00
54746;BMP180;40640;48.130;11.356;2023-04-06T15:28:23;95668.00;;;15.90
54746;BMP180;40640;48.130;11.356;2023-04-06T15:32:28;95669.00;;;15.80
54746;BMP180;40640;48.130;11.356;2023-04-06T15:36:31;95664.00;;;15.90
54746;BMP180;40640;48.130;11.356;2023-04-06T15:40:35;95669.00;;;16.10
54746;BMP180;40640;48.130;11.356;2023-04-06T15:44:44;95669.00;;;16.00
54746;BMP180;40640;48.130;11.356;2023-04-06T15:48:48;95668.00;;;16.00
54746;BMP180;40640;48.130;11.356;2023-04-06T15:52:51;95668.00;;;15.80
54746;BMP180;40640;48.130;11.356;2023-04-06T15:56:54;95664.00;;;15.70
54746;BMP180;40640;48.130;11.356;2023-04-06T16:00:57;95668.00;;;15.70
54746;BMP180;40640;48.130;11.356;2023-04-06T16:05:01;95661.00;;;15.80
54746;BMP180;40640;48.130;11.356;2023-04-06T16:09:04;95658.00;;;15.80
54746;BMP180;40640;48.130;11.356;2023-04-06T16:13:07;95651.00;;;15.60
54746;BMP180;40640;48.130;11.356;2023-04-06T16:17:10;95665.00;;;15.30
54746;BMP180;40640;48.130;11.356;2023-04-06T16:21:15;95661.00;;;15.10
54746;BMP180;40640;48.130;11.356;2023-04-06T16:25:18;95655.00;;;14.80
54746;BMP180;40640;48.130;11.356;2023-04-06T16:29:21;95664.00;;;14.80
54746;BMP180;40640;48.130;11.356;2023-04-06T16:33:24;95665.00;;;14.70
54746;BMP180;40640;48.130;11.356;2023-04-06T16:37:29;95667.00;;;14.60
54746;BMP180;40640;48.130;11.356;2023-04-06T16:41:32;95663.00;;;14.50
54746;BMP180;40640;48.130;11.356;2023-04-06T16:45:35;95659.00;;;14.30
54746;BMP180;40640;48.130;11.356;2023-04-06T16:49:38;95672.00;;;14.20
54746;BMP180;40640;48.130;11.356;2023-04-06T16:53:43;95665.00;;;14.00
54746;BMP180;40640;48.130;11.356;2023-04-06T16:57:46;95670.00;;;13.90
54746;BMP180;40640;48.130;11.356;2023-04-06T17:01:49;95661.00;;;13.80
54746;BMP180;40640;48.130;11.356;2023-04-06T17:05:52;95666.00;;;13.70
54746;BMP180;40640;48.130;11.356;2023-04-06T17:09:58;95668.00;;;13.60
54746;BMP180;40640;48.130;11.356;2023-04-06T17:14:01;95670.00;;;13.40
54746;BMP180;40640;48.130;11.356;2023-04-06T17:18:03;95668.00;;;13.30
54746;BMP180;40640;48.130;11.356;2023-04-06T17:22:06;95674.00;;;13.20
54746;BMP180;40640;48.130;11.356;2023-04-06T17:26:11;95667.00;;;13.20
54746;BMP180;40640;48.130;11.356;2023-04-06T17:30:14;95666.00;;;13.10
54746;BMP180;40640;48.130;11.356;2023-04-06T17:34:19;95667.00;;;13.00
54746;BMP180;40640;48.130;11.356;2023-04-06T17:38:21;95667.00;;;12.90
54746;BMP180;40640;48.130;11.356;2023-04-06T17:42:26;95664.00;;;12.80
54746;BMP180;40640;48.130;11.356;2023-04-06T17:46:29;95678.00;;;12.60
54746;BMP180;40640;48.130;11.356;2023-04-06T17:50:32;95669.00;;;12.50
54746;BMP180;40640;48.130;11.356;2023-04-06T17:54:35;95674.00;;;12.40
54746;BMP180;40640;48.130;11.356;2023-04-06T17:58:39;95681.00;;;12.20
54746;BMP180;40640;48.130;11.356;2023-04-06T18:02:42;95692.00;;;12.10
54746;BMP180;40640;48.130;11.356;2023-04-06T18:06:45;95694.00;;;12.00
54746;BMP180;40640;48.130;11.356;2023-04-06T18:10:48;95689.00;;;11.90
54746;BMP180;40640;48.130;11.356;2023-04-06T18:14:53;95691.00;;;12.00
54746;BMP180;40640;48.130;11.356;2023-04-06T18:18:56;95699.00;;;11.80
54746;BMP180;40640;48.130;11.356;2023-04-06T18:22:59;95700.00;;;11.60
54746;BMP180;40640;48.130;11.356;2023-04-06T18:27:02;95706.00;;;11.50
54746;BMP180;40640;48.130;11.356;2023-04-06T18:31:06;95707.00;;;11.40
54746;BMP180;40640;48.130;11.356;2023-04-06T18:35:09;95710.00;;;11.30
54746;BMP180;40640;48.130;11.356;2023-04-06T18:39:12;95711.00;;;11.20
54746;BMP180;40640;48.130;11.356;2023-04-06T18:43:16;95718.00;;;11.00
54746;BMP180;40640;48.130;11.356;2023-04-06T18:47:20;95709.00;;;10.90
54746;BMP180;40640;48.130;11.356;2023-04-06T18:51:27;95718.00;;;10.70
54746;BMP180;40640;48.130;11.356;2023-04-06T18:55:31;95710.00;;;10.60
54746;BMP180;40640;48.130;11.356;2023-04-06T18:59:34;95716.00;;;10.60
54746;BMP180;40640;48.130;11.356;2023-04-06T19:03:38;95725.00;;;10.60
54746;BMP180;40640;48.130;11.356;2023-04-06T19:07:41;95725.00;;;10.40
54746;BMP180;40640;48.130;11.356;2023-04-06T19:11:48;95731.00;;;10.20
54746;BMP180;40640;48.130;11.356;2023-04-06T19:15:51;95731.00;;;10.20
54746;BMP180;40640;48.130;11.356;2023-04-06T19:19:58;95725.00;;;10.00
54746;BMP180;40640;48.130;11.356;2023-04-06T19:24:01;95738.00;;;9.80
54746;BMP180;40640;48.130;11.356;2023-04-06T19:28:04;95733.00;;;9.90
54746;BMP180;40640;48.130;11.356;2023-04-06T19:32:09;95724.00;;;9.40
54746;BMP180;40640;48.130;11.356;2023-04-06T19:36:14;95725.00;;;9.20
54746;BMP180;40640;48.130;11.356;2023-04-06T19:40:17;95733.00;;;9.20
54746;BMP180;40640;48.130;11.356;2023-04-06T19:44:20;95725.00;;;9.10
54746;BMP180;40640;48.130;11.356;2023-04-06T19:48:23;95725.00;;;8.80
54746;BMP180;40640;48.130;11.356;2023-04-06T19:52:28;95726.00;;;8.80
54746;BMP180;40640;48.130;11.356;2023-04-06T19:56:32;95728.00;;;8.90
54746;BMP180;40640;48.130;11.356;2023-04-06T20:00:34;95722.00;;;8.60
54746;BMP180;40640;48.130;11.356;2023-04-06T20:04:37;95735.00;;;8.50
54746;BMP180;40640;48.130;11.356;2023-04-06T20:08:42;95735.00;;;8.50
54746;BMP180;40640;48.130;11.356;2023-04-06T20:12:45;95726.00;;;8.60
54746;BMP180;40640;48.130;11.356;2023-04-06T20:16:49;95726.00;;;8.50
54746;BMP180;40640;48.130;11.356;2023-04-06T20:20:52;95725.00;;;8.40
54746;BMP180;40640;48.130;11.356;2023-04-06T20:24:56;95722.00;;;8.20
54746;BMP180;40640;48.130;11.356;2023-04-06T20:28:59;95718.00;;;8.20
54746;BMP180;40640;48.130;11.356;2023-04-06T20:33:02;95711.00;;;8.20
54746;BMP180;40640;48.130;11.356;2023-04-06T20:37:05;95717.00;;;7.90
54746;BMP180;40640;48.130;11.356;2023-04-06T20:41:10;95717.00;;;7.90
54746;BMP180;40640;48.130;11.356;2023-04-06T20:45:13;95708.00;;;7.60
54746;BMP180;40640;48.130;11.356;2023-04-06T20:49:16;95700.00;;;7.80
54746;BMP180;40640;48.130;11.356;2023-04-06T20:53:22;95702.00;;;7.60
54746;BMP180;40640;48.130;11.356;2023-04-06T20:57:26;95707.00;;;7.90
54746;BMP180;40640;48.130;11.356;2023-04-06T21:01:29;95697.00;;;7.80
54746;BMP180;40640;48.130;11.356;2023-04-06T21:05:32;95705.00;;;7.70
54746;BMP180;40640;48.130;11.356;2023-04-06T21:09:37;95694.00;;;7.50
54746;BMP180;40640;48.130;11.356;2023-04-06T21:13:41;95695.00;;;7.50
54746;BMP180;40640;48.130;11.356;2023-04-06T21:17:44;95686.00;;;7.70
54746;BMP180;40640;48.130;11.356;2023-04-06T21:21:47;95689.00;;;7.40
54746;BMP180;40640;48.130;11.356;2023-04-06T21:25:50;95688.00;;;7.40
54746;BMP180;40640;48.130;11.356;2023-04-06T21:29:57;95690.00;;;7.50
54746;BMP180;40640;48.130;11.356;2023-04-06T21:34:00;95679.00;;;7.20
54746;BMP180;40640;48.130;11.356;2023-04-06T21:38:02;95681.00;;;7.20
54746;BMP180;40640;48.130;11.356;2023-04-06T21:42:05;95681.00;;;7.30
54746;BMP180;40640;48.130;11.356;2023-04-06T21:46:09;95680.00;;;7.30
54746;BMP180;40640;48.130;11.356;2023-04-06T21:50:12;95680.00;;;7.20
54746;BMP180;40640;48.130;11.356;2023-04-06T21:54:15;95681.00;;;7.20
54746;BMP180;40640;48.130;11.356;2023-04-06T21:58:18;95675.00;;;7.40
54746;BMP180;40640;48.130;11.356;2023-04-06T22:02:23;95683.00;;;7.30
54746;BMP180;40640;48.130;11.356;2023-04-06T22:06:26;95673.00;;;7.40
54746;BMP180;40640;48.130;11.356;2023-04-06T22:10:30;95671.00;;;7.60
54746;BMP180;40640;48.130;11.356;2023-04-06T22:14:34;95671.00;;;7.50
54746;BMP180;40640;48.130;11.356;2023-04-06T22:18:38;95668.00;;;7.50
54746;BMP180;40640;48.130;11.356;2023-04-06T22:22:41;95666.00;;;7.40
54746;BMP180;40640;48.130;11.356;2023-04-06T22:26:44;95664.00;;;7.50
54746;BMP180;40640;48.130;11.356;2023-04-06T22:30:47;95659.00;;;7.40
54746;BMP180;40640;48.130;11.356;2023-04-06T22:34:51;95655.00;;;7.60
54746;BMP180;40640;48.130;11.356;2023-04-06T22:38:54;95655.00;;;7.70
54746;BMP180;40640;48.130;11.356;2023-04-06T22:42:57;95652.00;;;7.80
54746;BMP180;40640;48.130;11.356;2023-04-06T22:47:00;95657.00;;;7.80
54746;BMP180;40640;48.130;11.356;2023-04-06T22:51:04;95647.00;;;7.30
54746;BMP180;40640;48.130;11.356;2023-04-06T22:55:07;95642.00;;;7.30
54746;BMP180;40640;48.130;11.356;2023-04-06T22:59:10;95648.00;;;7.50
54746;BMP180;40640;48.130;11.356;2023-04-06T23:03:13;95648.00;;;7.50
54746;BMP180;40640;48.130;11.356;2023-04-06T23:07:17;95649.00;;;7.50
54746;BMP180;40640;48.130;11.356;2023-04-06T23:11:20;95648.00;;;7.40
54746;BMP180;40640;48.130;11.356;2023-04-06T23:15:23;95640.00;;;7.30